sensor_id;sensor_type;location;lat;lon;timestamp;P1;durP1;ratioP1;P2;durP2;ratioP2
36443;SDS011;24692;45.642;13.806;2022-11-15T00:02:22;11.70;;;8.83;;
36443;SDS011;24692;45.642;13.806;2022-11-15T00:04:48;14.03;;;9.50;;
36443;SDS011;24692;45.642;13.806;2022-11-15T00:07:13;12.83;;;9.27;;
36443;SDS011;24692;45.642;13.806;2022-11-15T00:09:39;11.83;;;9.23;;
36443;SDS011;24692;45.642;13.806;2022-11-15T00:12:04;11.17;;;8.87;;
36443;SDS011;24692;45.642;13.806;2022-11-15T00:14:30;12.37;;;8.73;;
36443;SDS011;24692;45.642;13.806;2022-11-15T00:16:56;12.03;;;8.87;;
36443;SDS011;24692;45.642;13.806;2022-11-15T00:19:21;12.23;;;9.20;;
36443;SDS011;24692;45.642;13.806;2022-11-15T00:21:47;11.10;;;8.33;;
36443;SDS011;24692;45.642;13.806;2022-11-15T00:24:13;11.53;;;8.53;;
36443;SDS011;24692;45.642;13.806;2022-11-15T00:26:38;9.67;;;7.67;;
36443;SDS011;24692;45.642;13.806;2022-11-15T00:29:04;10.47;;;7.60;;
36443;SDS011;24692;45.642;13.806;2022-11-15T00:31:30;11.57;;;8.70;;
36443;SDS011;24692;45.642;13.806;2022-11-15T00:33:56;12.83;;;8.70;;
36443;SDS011;24692;45.642;13.806;2022-11-15T00:36:21;13.17;;;8.57;;
36443;SDS011;24692;45.642;13.806;2022-11-15T00:38:47;11.10;;;8.47;;
36443;SDS011;24692;45.642;13.806;2022-11-15T00:41:12;10.93;;;8.57;;
36443;SDS011;24692;45.642;13.806;2022-11-15T00:43:38;13.57;;;8.70;;
36443;SDS011;24692;45.642;13.806;2022-11-15T00:46:04;9.90;;;7.80;;
36443;SDS011;24692;45.642;13.806;2022-11-15T00:48:31;11.13;;;7.97;;
36443;SDS011;24692;45.642;13.806;2022-11-15T00:50:57;12.37;;;8.60;;
36443;SDS011;24692;45.642;13.806;2022-11-15T00:53:23;10.60;;;8.40;;
36443;SDS011;24692;45.642;13.806;2022-11-15T00:55:48;11.50;;;8.97;;
36443;SDS011;24692;45.642;13.806;2022-11-15T00:58:14;11.37;;;8.50;;
36443;SDS011;24692;45.642;13.806;2022-11-15T01:00:40;11.27;;;8.70;;
36443;SDS011;24692;45.642;13.806;2022-11-15T01:03:05;12.63;;;8.77;;
36443;SDS011;24692;45.642;13.806;2022-11-15T01:05:31;10.03;;;7.43;;
36443;SDS011;24692;45.642;13.806;2022-11-15T01:07:57;11.63;;;8.33;;
36443;SDS011;24692;45.642;13.806;2022-11-15T01:10:22;11.77;;;8.60;;
36443;SDS011;24692;45.642;13.806;2022-11-15T01:12:50;12.50;;;9.00;;
36443;SDS011;24692;45.642;13.806;2022-11-15T01:24:49;11.77;;;8.50;;
36443;SDS011;24692;45.642;13.806;2022-11-15T01:27:15;11.40;;;8.60;;
36443;SDS011;24692;45.642;13.806;2022-11-15T01:29:41;11.43;;;8.93;;
36443;SDS011;24692;45.642;13.806;2022-11-15T01:32:07;12.60;;;9.33;;
36443;SDS011;24692;45.642;13.806;2022-11-15T01:34:33;12.77;;;9.17;;
36443;SDS011;24692;45.642;13.806;2022-11-15T01:36:58;12.80;;;9.33;;
36443;SDS011;24692;45.642;13.806;2022-11-15T01:39:25;10.77;;;8.30;;
36443;SDS011;24692;45.642;13.806;2022-11-15T01:41:51;10.67;;;8.20;;
36443;SDS011;24692;45.642;13.806;2022-11-15T01:44:34;11.33;;;8.50;;
36443;SDS011;24692;45.642;13.806;2022-11-15T01:52:22;10.90;;;8.23;;
36443;SDS011;24692;45.642;13.806;2022-11-15T01:54:52;11.73;;;8.10;;
36443;SDS011;24692;45.642;13.806;2022-11-15T01:57:31;12.03;;;8.83;;
36443;SDS011;24692;45.642;13.806;2022-11-15T01:59:57;13.67;;;8.77;;
36443;SDS011;24692;45.642;13.806;2022-11-15T02:02:23;12.80;;;8.90;;
36443;SDS011;24692;45.642;13.806;2022-11-15T02:04:49;13.17;;;8.70;;
36443;SDS011;24692;45.642;13.806;2022-11-15T02:07:16;13.37;;;9.17;;
36443;SDS011;24692;45.642;13.806;2022-11-15T02:09:43;12.63;;;9.63;;
36443;SDS011;24692;45.642;13.806;2022-11-15T02:12:09;12.47;;;9.27;;
36443;SDS011;24692;45.642;13.806;2022-11-15T02:14:38;13.17;;;9.13;;
36443;SDS011;24692;45.642;13.806;2022-11-15T02:17:17;10.37;;;7.90;;
36443;SDS011;24692;45.642;13.806;2022-11-15T02:20:08;11.97;;;8.50;;
36443;SDS011;24692;45.642;13.806;2022-11-15T02:22:51;11.03;;;8.10;;
36443;SDS011;24692;45.642;13.806;2022-11-15T02:34:01;11.43;;;8.40;;
36443;SDS011;24692;45.642;13.806;2022-11-15T02:37:07;15.73;;;9.63;;
36443;SDS011;24692;45.642;13.806;2022-11-15T02:39:51;11.30;;;8.40;;
36443;SDS011;24692;45.642;13.806;2022-11-15T02:42:44;11.87;;;8.93;;
36443;SDS011;24692;45.642;13.806;2022-11-15T02:45:39;13.00;;;8.83;;
36443;SDS011;24692;45.642;13.806;2022-11-15T02:48:13;11.63;;;8.67;;
36443;SDS011;24692;45.642;13.806;2022-11-15T02:50:41;11.57;;;8.63;;
36443;SDS011;24692;45.642;13.806;2022-11-15T02:53:08;12.47;;;8.67;;
36443;SDS011;24692;45.642;13.806;2022-11-15T02:55:37;17.57;;;8.63;;
36443;SDS011;24692;45.642;13.806;2022-11-15T03:01:11;11.67;;;8.60;;
36443;SDS011;24692;45.642;13.806;2022-11-15T03:06:57;11.93;;;8.53;;
36443;SDS011;24692;45.642;13.806;2022-11-15T03:09:40;13.07;;;8.60;;
36443;SDS011;24692;45.642;13.806;2022-11-15T03:12:19;12.77;;;9.03;;
36443;SDS011;24692;45.642;13.806;2022-11-15T03:15:21;14.47;;;9.20;;
36443;SDS011;24692;45.642;13.806;2022-11-15T03:18:04;13.20;;;9.33;;
36443;SDS011;24692;45.642;13.806;2022-11-15T03:20:38;12.50;;;9.30;;
36443;SDS011;24692;45.642;13.806;2022-11-15T03:23:05;11.20;;;8.80;;
36443;SDS011;24692;45.642;13.806;2022-11-15T03:25:35;12.70;;;8.87;;
36443;SDS011;24692;45.642;13.806;2022-11-15T03:28:06;13.43;;;9.57;;
36443;SDS011;24692;45.642;13.806;2022-11-15T03:30:34;12.60;;;9.60;;
36443;SDS011;24692;45.642;13.806;2022-11-15T03:33:02;12.73;;;8.97;;
36443;SDS011;24692;45.642;13.806;2022-11-15T03:35:33;13.97;;;8.47;;
36443;SDS011;24692;45.642;13.806;2022-11-15T03:40:40;11.83;;;8.57;;
36443;SDS011;24692;45.642;13.806;2022-11-15T03:46:06;11.87;;;8.83;;
36443;SDS011;24692;45.642;13.806;2022-11-15T03:48:39;11.57;;;8.53;;
36443;SDS011;24692;45.642;13.806;2022-11-15T03:51:09;12.23;;;8.33;;
36443;SDS011;24692;45.642;13.806;2022-11-15T03:53:35;10.90;;;8.40;;
36443;SDS011;24692;45.642;13.806;2022-11-15T03:56:01;10.30;;;7.43;;
36443;SDS011;24692;45.642;13.806;2022-11-15T03:58:26;11.07;;;7.73;;
36443;SDS011;24692;45.642;13.806;2022-11-15T04:00:52;10.27;;;7.83;;
36443;SDS011;24692;45.642;13.806;2022-11-15T04:03:18;9.93;;;7.57;;
36443;SDS011;24692;45.642;13.806;2022-11-15T04:05:43;10.00;;;7.70;;
36443;SDS011;24692;45.642;13.806;2022-11-15T04:08:09;10.47;;;7.30;;
36443;SDS011;24692;45.642;13.806;2022-11-15T04:10:35;9.90;;;8.03;;
36443;SDS011;24692;45.642;13.806;2022-11-15T04:13:01;9.90;;;7.50;;
36443;SDS011;24692;45.642;13.806;2022-11-15T04:15:27;9.73;;;7.40;;
36443;SDS011;24692;45.642;13.806;2022-11-15T04:17:54;10.43;;;7.23;;
36443;SDS011;24692;45.642;13.806;2022-11-15T04:20:25;11.07;;;7.90;;
36443;SDS011;24692;45.642;13.806;2022-11-15T04:25:58;11.30;;;7.53;;
36443;SDS011;24692;45.642;13.806;2022-11-15T04:28:25;10.10;;;7.07;;
36443;SDS011;24692;45.642;13.806;2022-11-15T04:30:51;10.57;;;7.33;;
36443;SDS011;24692;45.642;13.806;2022-11-15T04:33:16;11.17;;;8.10;;
36443;SDS011;24692;45.642;13.806;2022-11-15T04:35:42;8.97;;;6.97;;
36443;SDS011;24692;45.642;13.806;2022-11-15T04:38:09;8.40;;;6.73;;
36443;SDS011;24692;45.642;13.806;2022-11-15T04:40:36;9.27;;;7.13;;
36443;SDS011;24692;45.642;13.806;2022-11-15T04:43:02;10.37;;;7.03;;
36443;SDS011;24692;45.642;13.806;2022-11-15T04:45:29;9.70;;;7.30;;
36443;SDS011;24692;45.642;13.806;2022-11-15T04:47:54;9.93;;;7.67;;
36443;SDS011;24692;45.642;13.806;2022-11-15T04:50:20;9.57;;;7.03;;
36443;SDS011;24692;45.642;13.806;2022-11-15T04:52:52;7.97;;;6.67;;
36443;SDS011;24692;45.642;13.806;2022-11-15T04:55:19;10.10;;;7.40;;
36443;SDS011;24692;45.642;13.806;2022-11-15T04:57:45;9.97;;;7.70;;
36443;SDS011;24692;45.642;13.806;2022-11-15T05:00:12;9.07;;;7.00;;
36443;SDS011;24692;45.642;13.806;2022-11-15T05:02:40;8.13;;;6.50;;
36443;SDS011;24692;45.642;13.806;2022-11-15T05:05:24;10.57;;;7.20;;
36443;SDS011;24692;45.642;13.806;2022-11-15T05:07:50;9.37;;;7.03;;
36443;SDS011;24692;45.642;13.806;2022-11-15T05:10:16;10.87;;;7.93;;
36443;SDS011;24692;45.642;13.806;2022-11-15T05:12:42;11.03;;;7.83;;
36443;SDS011;24692;45.642;13.806;2022-11-15T05:15:07;11.13;;;7.60;;
36443;SDS011;24692;45.642;13.806;2022-11-15T05:17:33;9.23;;;7.50;;
36443;SDS011;24692;45.642;13.806;2022-11-15T05:19:59;9.13;;;6.40;;
36443;SDS011;24692;45.642;13.806;2022-11-15T05:22:25;8.17;;;6.57;;
36443;SDS011;24692;45.642;13.806;2022-11-15T05:24:51;8.57;;;7.03;;
36443;SDS011;24692;45.642;13.806;2022-11-15T05:27:17;9.83;;;7.13;;
36443;SDS011;24692;45.642;13.806;2022-11-15T05:29:43;10.67;;;8.00;;
36443;SDS011;24692;45.642;13.806;2022-11-15T05:32:08;9.83;;;6.87;;
36443;SDS011;24692;45.642;13.806;2022-11-15T05:34:36;9.33;;;7.10;;
36443;SDS011;24692;45.642;13.806;2022-11-15T05:37:02;9.17;;;7.07;;
36443;SDS011;24692;45.642;13.806;2022-11-15T05:39:28;9.73;;;7.37;;
36443;SDS011;24692;45.642;13.806;2022-11-15T05:41:59;10.50;;;7.93;;
36443;SDS011;24692;45.642;13.806;2022-11-15T05:44:35;10.30;;;7.77;;
36443;SDS011;24692;45.642;13.806;2022-11-15T05:47:01;9.43;;;7.17;;
36443;SDS011;24692;45.642;13.806;2022-11-15T05:49:31;10.43;;;8.00;;
36443;SDS011;24692;45.642;13.806;2022-11-15T05:51:59;9.27;;;7.43;;
36443;SDS011;24692;45.642;13.806;2022-11-15T05:54:25;9.37;;;7.93;;
36443;SDS011;24692;45.642;13.806;2022-11-15T05:56:51;11.43;;;8.00;;
36443;SDS011;24692;45.642;13.806;2022-11-15T05:59:17;11.23;;;7.80;;
36443;SDS011;24692;45.642;13.806;2022-11-15T06:01:43;10.10;;;7.90;;
36443;SDS011;24692;45.642;13.806;2022-11-15T06:04:09;10.37;;;7.80;;
36443;SDS011;24692;45.642;13.806;2022-11-15T06:06:35;8.60;;;6.87;;
36443;SDS011;24692;45.642;13.806;2022-11-15T06:09:01;8.57;;;7.00;;
36443;SDS011;24692;45.642;13.806;2022-11-15T06:11:26;9.83;;;6.67;;
36443;SDS011;24692;45.642;13.806;2022-11-15T06:13:52;10.57;;;7.57;;
36443;SDS011;24692;45.642;13.806;2022-11-15T06:16:18;9.50;;;7.40;;
36443;SDS011;24692;45.642;13.806;2022-11-15T06:18:43;8.97;;;7.17;;
36443;SDS011;24692;45.642;13.806;2022-11-15T06:21:09;10.07;;;7.43;;
36443;SDS011;24692;45.642;13.806;2022-11-15T06:23:35;10.17;;;7.20;;
36443;SDS011;24692;45.642;13.806;2022-11-15T06:26:01;9.13;;;7.33;;
36443;SDS011;24692;45.642;13.806;2022-11-15T06:28:28;8.30;;;6.77;;
36443;SDS011;24692;45.642;13.806;2022-11-15T06:30:54;9.10;;;7.13;;
36443;SDS011;24692;45.642;13.806;2022-11-15T06:33:20;8.90;;;6.73;;
36443;SDS011;24692;45.642;13.806;2022-11-15T06:35:45;9.87;;;7.07;;
36443;SDS011;24692;45.642;13.806;2022-11-15T06:38:11;10.97;;;8.10;;
36443;SDS011;24692;45.642;13.806;2022-11-15T06:40:37;11.07;;;7.40;;
36443;SDS011;24692;45.642;13.806;2022-11-15T06:43:04;11.67;;;6.97;;
36443;SDS011;24692;45.642;13.806;2022-11-15T06:45:30;11.63;;;7.57;;
36443;SDS011;24692;45.642;13.806;2022-11-15T06:47:56;13.40;;;7.73;;
36443;SDS011;24692;45.642;13.806;2022-11-15T06:50:29;10.70;;;7.80;;
36443;SDS011;24692;45.642;13.806;2022-11-15T06:52:55;9.63;;;7.47;;
36443;SDS011;24692;45.642;13.806;2022-11-15T06:55:25;9.87;;;7.33;;
36443;SDS011;24692;45.642;13.806;2022-11-15T06:57:51;13.97;;;8.67;;
36443;SDS011;24692;45.642;13.806;2022-11-15T07:00:18;20.30;;;8.43;;
36443;SDS011;24692;45.642;13.806;2022-11-15T07:02:45;12.13;;;8.00;;
36443;SDS011;24692;45.642;13.806;2022-11-15T07:05:12;13.03;;;8.67;;
36443;SDS011;24692;45.642;13.806;2022-11-15T07:07:39;11.33;;;8.13;;
36443;SDS011;24692;45.642;13.806;2022-11-15T07:10:05;9.80;;;8.10;;
36443;SDS011;24692;45.642;13.806;2022-11-15T07:12:31;12.50;;;7.90;;
36443;SDS011;24692;45.642;13.806;2022-11-15T07:14:56;10.07;;;8.23;;
36443;SDS011;24692;45.642;13.806;2022-11-15T07:17:22;10.60;;;7.80;;
36443;SDS011;24692;45.642;13.806;2022-11-15T07:19:48;13.53;;;9.13;;
36443;SDS011;24692;45.642;13.806;2022-11-15T07:22:13;10.50;;;7.90;;
36443;SDS011;24692;45.642;13.806;2022-11-15T07:24:39;15.70;;;7.43;;
36443;SDS011;24692;45.642;13.806;2022-11-15T07:27:04;11.93;;;8.17;;
36443;SDS011;24692;45.642;13.806;2022-11-15T07:29:30;11.63;;;7.83;;
36443;SDS011;24692;45.642;13.806;2022-11-15T07:31:56;10.73;;;7.73;;
36443;SDS011;24692;45.642;13.806;2022-11-15T07:34:21;9.67;;;7.40;;
36443;SDS011;24692;45.642;13.806;2022-11-15T07:36:48;10.70;;;8.07;;
36443;SDS011;24692;45.642;13.806;2022-11-15T07:39:14;12.57;;;8.40;;
36443;SDS011;24692;45.642;13.806;2022-11-15T07:41:40;11.17;;;8.20;;
36443;SDS011;24692;45.642;13.806;2022-11-15T07:44:06;12.33;;;8.10;;
36443;SDS011;24692;45.642;13.806;2022-11-15T07:46:31;10.97;;;8.23;;
36443;SDS011;24692;45.642;13.806;2022-11-15T07:48:57;12.57;;;7.53;;
36443;SDS011;24692;45.642;13.806;2022-11-15T07:51:24;14.43;;;8.27;;
36443;SDS011;24692;45.642;13.806;2022-11-15T07:53:50;12.20;;;8.20;;
36443;SDS011;24692;45.642;13.806;2022-11-15T07:56:15;12.70;;;8.07;;
36443;SDS011;24692;45.642;13.806;2022-11-15T07:58:41;15.83;;;9.23;;
36443;SDS011;24692;45.642;13.806;2022-11-15T08:01:08;13.80;;;8.37;;
36443;SDS011;24692;45.642;13.806;2022-11-15T08:03:35;14.00;;;8.60;;
36443;SDS011;24692;45.642;13.806;2022-11-15T08:06:01;15.30;;;8.60;;
36443;SDS011;24692;45.642;13.806;2022-11-15T08:08:27;21.67;;;10.80;;
36443;SDS011;24692;45.642;13.806;2022-11-15T08:10:53;23.47;;;11.57;;
36443;SDS011;24692;45.642;13.806;2022-11-15T08:13:19;21.60;;;10.87;;
36443;SDS011;24692;45.642;13.806;2022-11-15T08:15:46;17.70;;;10.33;;
36443;SDS011;24692;45.642;13.806;2022-11-15T08:18:15;20.90;;;10.23;;
36443;SDS011;24692;45.642;13.806;2022-11-15T08:20:41;22.27;;;9.37;;
36443;SDS011;24692;45.642;13.806;2022-11-15T08:23:07;13.67;;;8.17;;
36443;SDS011;24692;45.642;13.806;2022-11-15T08:25:35;14.23;;;8.10;;
36443;SDS011;24692;45.642;13.806;2022-11-15T08:28:03;18.00;;;8.73;;
36443;SDS011;24692;45.642;13.806;2022-11-15T08:30:33;13.57;;;8.50;;
36443;SDS011;24692;45.642;13.806;2022-11-15T08:33:01;15.57;;;8.17;;
36443;SDS011;24692;45.642;13.806;2022-11-15T08:35:27;12.83;;;8.43;;
36443;SDS011;24692;45.642;13.806;2022-11-15T08:37:54;12.10;;;8.00;;
36443;SDS011;24692;45.642;13.806;2022-11-15T08:40:20;13.30;;;7.80;;
36443;SDS011;24692;45.642;13.806;2022-11-15T08:42:46;12.70;;;8.07;;
36443;SDS011;24692;45.642;13.806;2022-11-15T08:45:12;16.67;;;8.60;;
36443;SDS011;24692;45.642;13.806;2022-11-15T08:47:38;28.83;;;9.63;;
36443;SDS011;24692;45.642;13.806;2022-11-15T08:50:04;12.70;;;8.00;;
36443;SDS011;24692;45.642;13.806;2022-11-15T08:52:30;9.87;;;7.43;;
36443;SDS011;24692;45.642;13.806;2022-11-15T08:54:56;10.23;;;7.27;;
36443;SDS011;24692;45.642;13.806;2022-11-15T08:57:22;13.43;;;8.20;;
36443;SDS011;24692;45.642;13.806;2022-11-15T08:59:48;13.83;;;7.70;;
36443;SDS011;24692;45.642;13.806;2022-11-15T09:02:13;9.90;;;7.80;;
36443;SDS011;24692;45.642;13.806;2022-11-15T09:04:43;10.80;;;7.83;;
36443;SDS011;24692;45.642;13.806;2022-11-15T09:07:10;11.33;;;7.80;;
36443;SDS011;24692;45.642;13.806;2022-11-15T09:09:36;9.73;;;7.87;;
36443;SDS011;24692;45.642;13.806;2022-11-15T09:12:03;13.83;;;7.87;;
36443;SDS011;24692;45.642;13.806;2022-11-15T09:14:29;12.27;;;7.30;;
36443;SDS011;24692;45.642;13.806;2022-11-15T09:16:55;14.83;;;7.17;;
36443;SDS011;24692;45.642;13.806;2022-11-15T09:19:21;16.27;;;8.30;;
36443;SDS011;24692;45.642;13.806;2022-11-15T09:21:47;14.87;;;8.00;;
36443;SDS011;24692;45.642;13.806;2022-11-15T09:24:12;8.73;;;6.80;;
36443;SDS011;24692;45.642;13.806;2022-11-15T09:26:38;8.63;;;6.53;;
36443;SDS011;24692;45.642;13.806;2022-11-15T09:29:05;13.10;;;7.10;;
36443;SDS011;24692;45.642;13.806;2022-11-15T09:31:31;7.70;;;6.60;;
36443;SDS011;24692;45.642;13.806;2022-11-15T09:33:57;8.47;;;6.40;;
36443;SDS011;24692;45.642;13.806;2022-11-15T09:36:23;9.43;;;6.40;;
36443;SDS011;24692;45.642;13.806;2022-11-15T09:38:49;11.97;;;6.80;;
36443;SDS011;24692;45.642;13.806;2022-11-15T09:43:59;12.07;;;6.60;;
36443;SDS011;24692;45.642;13.806;2022-11-15T09:49:18;9.23;;;6.40;;
36443;SDS011;24692;45.642;13.806;2022-11-15T09:51:45;14.40;;;6.60;;
36443;SDS011;24692;45.642;13.806;2022-11-15T09:56:46;8.60;;;5.80;;
36443;SDS011;24692;45.642;13.806;2022-11-15T10:04:50;18.73;;;6.70;;
36443;SDS011;24692;45.642;13.806;2022-11-15T10:07:35;8.43;;;6.20;;
36443;SDS011;24692;45.642;13.806;2022-11-15T10:10:45;7.57;;;6.23;;
36443;SDS011;24692;45.642;13.806;2022-11-15T10:13:03;7.40;;;5.90;;
36443;SDS011;24692;45.642;13.806;2022-11-15T10:15:29;9.23;;;6.27;;
36443;SDS011;24692;45.642;13.806;2022-11-15T10:20:34;8.40;;;6.40;;
36443;SDS011;24692;45.642;13.806;2022-11-15T10:23:18;10.17;;;6.33;;
36443;SDS011;24692;45.642;13.806;2022-11-15T10:25:45;7.97;;;6.40;;
36443;SDS011;24692;45.642;13.806;2022-11-15T10:28:13;10.40;;;6.67;;
36443;SDS011;24692;45.642;13.806;2022-11-15T10:30:58;10.57;;;6.70;;
36443;SDS011;24692;45.642;13.806;2022-11-15T10:41:32;8.50;;;6.23;;
36443;SDS011;24692;45.642;13.806;2022-11-15T10:46:44;9.53;;;6.90;;
36443;SDS011;24692;45.642;13.806;2022-11-15T10:51:46;8.07;;;6.20;;
36443;SDS011;24692;45.642;13.806;2022-11-15T10:54:13;8.17;;;6.67;;
36443;SDS011;24692;45.642;13.806;2022-11-15T10:56:53;10.17;;;6.77;;
36443;SDS011;24692;45.642;13.806;2022-11-15T10:59:28;8.40;;;6.90;;
36443;SDS011;24692;45.642;13.806;2022-11-15T11:01:56;10.33;;;7.40;;
36443;SDS011;24692;45.642;13.806;2022-11-15T11:04:22;10.13;;;6.63;;
36443;SDS011;24692;45.642;13.806;2022-11-15T11:06:55;13.47;;;6.87;;
36443;SDS011;24692;45.642;13.806;2022-11-15T11:11:54;9.00;;;6.53;;
36443;SDS011;24692;45.642;13.806;2022-11-15T11:14:21;10.60;;;6.43;;
36443;SDS011;24692;45.642;13.806;2022-11-15T11:19:36;6.77;;;5.40;;
36443;SDS011;24692;45.642;13.806;2022-11-15T11:33:19;9.50;;;6.10;;
36443;SDS011;24692;45.642;13.806;2022-11-15T11:35:51;8.30;;;5.87;;
36443;SDS011;24692;45.642;13.806;2022-11-15T11:49:55;6.90;;;5.47;;
36443;SDS011;24692;45.642;13.806;2022-11-15T11:55:03;7.90;;;5.77;;
36443;SDS011;24692;45.642;13.806;2022-11-15T11:57:52;7.90;;;5.90;;
36443;SDS011;24692;45.642;13.806;2022-11-15T12:00:19;7.90;;;6.20;;
36443;SDS011;24692;45.642;13.806;2022-11-15T12:05:50;8.27;;;6.00;;
36443;SDS011;24692;45.642;13.806;2022-11-15T12:08:27;8.13;;;5.73;;
36443;SDS011;24692;45.642;13.806;2022-11-15T12:11:04;8.30;;;6.37;;
36443;SDS011;24692;45.642;13.806;2022-11-15T12:13:38;6.90;;;5.80;;
36443;SDS011;24692;45.642;13.806;2022-11-15T12:18:37;5.73;;;5.10;;
36443;SDS011;24692;45.642;13.806;2022-11-15T12:21:07;6.13;;;5.20;;
36443;SDS011;24692;45.642;13.806;2022-11-15T12:23:46;11.83;;;5.77;;
36443;SDS011;24692;45.642;13.806;2022-11-15T12:26:18;10.70;;;5.60;;
36443;SDS011;24692;45.642;13.806;2022-11-15T12:31:37;8.30;;;5.43;;
36443;SDS011;24692;45.642;13.806;2022-11-15T12:36:47;9.23;;;6.47;;
36443;SDS011;24692;45.642;13.806;2022-11-15T12:39:15;15.20;;;6.70;;
36443;SDS011;24692;45.642;13.806;2022-11-15T13:02:44;15.70;;;8.83;;
36443;SDS011;24692;45.642;13.806;2022-11-15T13:12:53;11.70;;;9.43;;
36443;SDS011;24692;45.642;13.806;2022-11-15T13:15:51;15.50;;;10.87;;
36443;SDS011;24692;45.642;13.806;2022-11-15T13:18:35;15.47;;;11.47;;
36443;SDS011;24692;45.642;13.806;2022-11-15T13:21:03;19.77;;;12.73;;
36443;SDS011;24692;45.642;13.806;2022-11-15T13:24:02;20.67;;;13.70;;
36443;SDS011;24692;45.642;13.806;2022-11-15T13:26:29;18.70;;;13.83;;
36443;SDS011;24692;45.642;13.806;2022-11-15T13:28:55;21.37;;;14.13;;
36443;SDS011;24692;45.642;13.806;2022-11-15T13:31:23;20.20;;;13.83;;
36443;SDS011;24692;45.642;13.806;2022-11-15T13:34:27;19.20;;;13.17;;
36443;SDS011;24692;45.642;13.806;2022-11-15T13:36:57;20.03;;;14.53;;
36443;SDS011;24692;45.642;13.806;2022-11-15T13:39:33;21.07;;;14.23;;
36443;SDS011;24692;45.642;13.806;2022-11-15T13:42:01;21.47;;;13.40;;
36443;SDS011;24692;45.642;13.806;2022-11-15T13:44:28;19.43;;;13.30;;
36443;SDS011;24692;45.642;13.806;2022-11-15T13:47:06;19.80;;;12.87;;
36443;SDS011;24692;45.642;13.806;2022-11-15T13:49:39;17.07;;;12.33;;
36443;SDS011;24692;45.642;13.806;2022-11-15T13:52:06;15.27;;;11.50;;
36443;SDS011;24692;45.642;13.806;2022-11-15T13:54:35;16.90;;;11.97;;
36443;SDS011;24692;45.642;13.806;2022-11-15T13:57:10;18.37;;;12.13;;
36443;SDS011;24692;45.642;13.806;2022-11-15T13:59:43;17.57;;;12.13;;
36443;SDS011;24692;45.642;13.806;2022-11-15T14:02:34;17.93;;;12.60;;
36443;SDS011;24692;45.642;13.806;2022-11-15T14:05:22;18.13;;;12.97;;
36443;SDS011;24692;45.642;13.806;2022-11-15T14:07:55;17.33;;;12.57;;
36443;SDS011;24692;45.642;13.806;2022-11-15T14:10:31;16.97;;;12.63;;
36443;SDS011;24692;45.642;13.806;2022-11-15T14:13:02;19.97;;;13.37;;
36443;SDS011;24692;45.642;13.806;2022-11-15T14:15:35;20.73;;;13.30;;
36443;SDS011;24692;45.642;13.806;2022-11-15T14:18:02;19.13;;;14.20;;
36443;SDS011;24692;45.642;13.806;2022-11-15T14:20:33;19.93;;;13.77;;
36443;SDS011;24692;45.642;13.806;2022-11-15T14:23:45;21.13;;;14.20;;
36443;SDS011;24692;45.642;13.806;2022-11-15T14:25:53;23.33;;;14.77;;
36443;SDS011;24692;45.642;13.806;2022-11-15T14:30:48;23.37;;;14.23;;
36443;SDS011;24692;45.642;13.806;2022-11-15T14:33:32;23.13;;;15.23;;
36443;SDS011;24692;45.642;13.806;2022-11-15T14:36:04;23.00;;;14.53;;
36443;SDS011;24692;45.642;13.806;2022-11-15T14:38:30;22.10;;;14.80;;
36443;SDS011;24692;45.642;13.806;2022-11-15T14:40:56;21.20;;;14.33;;
36443;SDS011;24692;45.642;13.806;2022-11-15T14:43:22;21.40;;;15.47;;
36443;SDS011;24692;45.642;13.806;2022-11-15T14:45:48;25.17;;;16.07;;
36443;SDS011;24692;45.642;13.806;2022-11-15T14:48:14;25.67;;;16.47;;
36443;SDS011;24692;45.642;13.806;2022-11-15T14:50:39;24.80;;;17.30;;
36443;SDS011;24692;45.642;13.806;2022-11-15T14:53:05;31.17;;;16.93;;
36443;SDS011;24692;45.642;13.806;2022-11-15T14:55:32;25.57;;;17.27;;
36443;SDS011;24692;45.642;13.806;2022-11-15T14:58:04;24.73;;;16.43;;
36443;SDS011;24692;45.642;13.806;2022-11-15T15:00:33;23.93;;;16.17;;
36443;SDS011;24692;45.642;13.806;2022-11-15T15:03:00;26.27;;;17.47;;
36443;SDS011;24692;45.642;13.806;2022-11-15T15:05:30;28.73;;;17.03;;
36443;SDS011;24692;45.642;13.806;2022-11-15T15:07:57;27.13;;;17.63;;
36443;SDS011;24692;45.642;13.806;2022-11-15T15:10:22;26.83;;;17.93;;
36443;SDS011;24692;45.642;13.806;2022-11-15T15:12:50;31.27;;;18.70;;
36443;SDS011;24692;45.642;13.806;2022-11-15T15:15:23;26.23;;;18.27;;
36443;SDS011;24692;45.642;13.806;2022-11-15T15:17:50;27.67;;;17.87;;
36443;SDS011;24692;45.642;13.806;2022-11-15T15:20:16;30.30;;;19.23;;
36443;SDS011;24692;45.642;13.806;2022-11-15T15:22:41;29.03;;;19.17;;
36443;SDS011;24692;45.642;13.806;2022-11-15T15:25:40;29.60;;;18.67;;
36443;SDS011;24692;45.642;13.806;2022-11-15T15:28:00;32.43;;;18.77;;
36443;SDS011;24692;45.642;13.806;2022-11-15T15:30:27;27.07;;;18.43;;
36443;SDS011;24692;45.642;13.806;2022-11-15T15:32:54;28.57;;;18.90;;
36443;SDS011;24692;45.642;13.806;2022-11-15T15:35:20;28.50;;;18.30;;
36443;SDS011;24692;45.642;13.806;2022-11-15T15:37:46;28.13;;;19.10;;
36443;SDS011;24692;45.642;13.806;2022-11-15T15:40:15;27.97;;;18.90;;
36443;SDS011;24692;45.642;13.806;2022-11-15T15:42:45;28.03;;;18.27;;
36443;SDS011;24692;45.642;13.806;2022-11-15T15:45:11;27.03;;;18.00;;
36443;SDS011;24692;45.642;13.806;2022-11-15T15:47:37;27.33;;;18.07;;
36443;SDS011;24692;45.642;13.806;2022-11-15T15:50:04;29.77;;;18.67;;
36443;SDS011;24692;45.642;13.806;2022-11-15T15:52:46;30.87;;;18.40;;
36443;SDS011;24692;45.642;13.806;2022-11-15T15:55:11;31.83;;;18.47;;
36443;SDS011;24692;45.642;13.806;2022-11-15T15:57:37;31.43;;;18.97;;
36443;SDS011;24692;45.642;13.806;2022-11-15T16:00:03;27.40;;;18.20;;
36443;SDS011;24692;45.642;13.806;2022-11-15T16:02:30;28.60;;;19.03;;
36443;SDS011;24692;45.642;13.806;2022-11-15T16:04:55;31.03;;;19.97;;
36443;SDS011;24692;45.642;13.806;2022-11-15T16:07:21;29.17;;;19.27;;
36443;SDS011;24692;45.642;13.806;2022-11-15T16:09:50;29.80;;;19.93;;
36443;SDS011;24692;45.642;13.806;2022-11-15T16:12:33;27.43;;;18.83;;
36443;SDS011;24692;45.642;13.806;2022-11-15T16:15:00;28.60;;;18.80;;
36443;SDS011;24692;45.642;13.806;2022-11-15T16:17:28;33.17;;;20.47;;
36443;SDS011;24692;45.642;13.806;2022-11-15T16:20:00;26.80;;;17.93;;
36443;SDS011;24692;45.642;13.806;2022-11-15T16:22:26;29.47;;;19.33;;
36443;SDS011;24692;45.642;13.806;2022-11-15T16:24:53;29.87;;;18.97;;
36443;SDS011;24692;45.642;13.806;2022-11-15T16:27:19;27.80;;;18.87;;
36443;SDS011;24692;45.642;13.806;2022-11-15T16:29:46;30.07;;;18.93;;
36443;SDS011;24692;45.642;13.806;2022-11-15T16:32:12;30.17;;;19.37;;
36443;SDS011;24692;45.642;13.806;2022-11-15T16:34:39;31.00;;;19.20;;
36443;SDS011;24692;45.642;13.806;2022-11-15T16:37:05;30.03;;;17.87;;
36443;SDS011;24692;45.642;13.806;2022-11-15T16:39:33;28.17;;;18.40;;
36443;SDS011;24692;45.642;13.806;2022-11-15T16:41:59;30.23;;;19.07;;
36443;SDS011;24692;45.642;13.806;2022-11-15T16:44:25;29.13;;;18.53;;
36443;SDS011;24692;45.642;13.806;2022-11-15T16:46:51;28.83;;;18.47;;
36443;SDS011;24692;45.642;13.806;2022-11-15T16:49:20;25.47;;;17.70;;
36443;SDS011;24692;45.642;13.806;2022-11-15T16:51:47;24.67;;;16.60;;
36443;SDS011;24692;45.642;13.806;2022-11-15T16:54:13;25.03;;;16.93;;